Terminal Aerodrome Forecast
Issued by NWS

Home | Current Version | Previous Version | Text Only | Print | Product List | Glossary On
Versions: 1 2 3 4 5 6 7 8 9 10 11 12 13 14 15 16 17 18 19
000
FTUS43 KSGF 251536 AAA
TAFJLN
TAF AMD
KJLN 251536Z 2516/2612 29008KT P6SM VCSH OVC008
     FM251800 29009KT P6SM VCSH OVC010
     FM252200 27010KT P6SM OVC015
     FM260100 28006KT P6SM OVC010
     FM260600 VRB03KT P6SM OVC008
     FM261000 00000KT P6SM BKN010=

USA.gov is the U.S. government's official web portal to all federal, state and local government web resources and services.